Chilhowie, Virginia
Current Conditions -  °F | °C
As of 6:55 PM on Friday 31 Oct 2014 (Local Time) from KMKJ Reporting Station
Light Rain Light Rain  
Wind Chill: 33°   Ceiling: 900
Heat Index: 41°   Visibility: 10mi
Dew Point: 38°   Wind: 13mph
Humidity: 90%   Direction: 260°W
Pressure: 29.85"   Gusts: 18mph
Location:  36.8°N, 81.68°W
Report Text: KMKJ 312255Z AUTO 26011G16KT 10SM -RA OVC009 05/03 A2985 RMK AO2 P0003 T00480033
Loading
Personal Weather Stations






























Interactive Weather Map
Tropical Storm Tracking
New forecast layout! Learn more

10-Day Weather Forecast

Advertisements
Track Severe Weather on mobile